Time;durP1;ratioP1;P1;durP2;ratioP2;P2;SDS_P1;SDS_P2;PMS_P1;PMS_P2;Temp;Humidity;BMP_temperature;BMP_pressure;BME280_temperature;BME280_humidity;BME280_pressure;Samples;Min_cycle;Max_cycle;Signal;HPM_P1;HPM_P2
2021/04/22 00:02:21;;;;;;;14.07;3.40;;;;;;;6.28;62.31;102209.47;4986963;28;20028;-21
2021/04/22 00:04:46;;;;;;;14.68;3.40;;;;;;;6.22;62.72;102212.00;4986752;28;20137;-21
2021/04/22 00:07:12;;;;;;;14.15;2.85;;;;;;;6.13;62.76;102219.78;4993289;28;20549;-21
2021/04/22 00:09:38;;;;;;;13.48;3.05;;;;;;;6.05;62.77;102217.91;4983479;28;20105;-21
2021/04/22 00:12:06;;;;;;;13.48;2.40;;;;;;;6.08;62.97;102222.38;4975944;28;20046;-20
2021/04/22 00:14:32;;;;;;;11.82;2.78;;;;;;;5.94;62.96;102216.78;4969575;28;20034;-21
2021/04/22 00:16:57;;;;;;;13.40;3.13;;;;;;;5.84;63.30;102226.31;4971886;28;20042;-20
2021/04/22 00:19:22;;;;;;;13.75;2.72;;;;;;;5.82;63.29;102223.63;4987260;28;20034;-22
2021/04/22 00:21:48;;;;;;;15.35;3.20;;;;;;;5.81;63.46;102226.22;4989485;28;20038;-21
2021/04/22 00:24:13;;;;;;;13.18;3.28;;;;;;;5.80;63.41;102220.09;4985853;28;20049;-21
2021/04/22 00:26:38;;;;;;;13.50;3.10;;;;;;;5.65;63.63;102210.13;4987728;28;20141;-21
2021/04/22 00:29:04;;;;;;;12.88;2.70;;;;;;;5.79;63.81;102223.56;5014295;28;20048;-21
2021/04/22 00:31:29;;;;;;;14.63;2.67;;;;;;;5.82;64.10;102225.38;4986366;28;20041;-21
2021/04/22 00:33:55;;;;;;;11.02;2.75;;;;;;;5.72;63.77;102234.88;4987330;28;20588;-21
2021/04/22 00:36:20;;;;;;;14.32;3.20;;;;;;;5.67;63.68;102232.16;4987609;28;20032;-22
2021/04/22 00:38:45;;;;;;;22.63;4.20;;;;;;;5.61;63.93;102235.56;4987802;28;20026;-20
2021/04/22 00:41:11;;;;;;;12.32;2.83;;;;;;;5.52;64.42;102235.38;4990311;28;20048;-22
2021/04/22 00:43:36;;;;;;;14.93;2.90;;;;;;;5.49;64.46;102236.22;4988724;28;20022;-21
2021/04/22 00:46:02;;;;;;;9.07;2.47;;;;;;;5.58;64.31;102235.50;4990817;28;20080;-21
2021/04/22 00:48:27;;;;;;;15.02;2.97;;;;;;;5.47;64.79;102229.13;4986190;28;20109;-21
2021/04/22 00:50:53;;;;;;;12.07;2.90;;;;;;;5.47;64.81;102237.06;4987163;28;20098;-21
2021/04/22 00:53:20;;;;;;;13.35;3.03;;;;;;;5.42;64.95;102242.22;4987208;28;20101;-22
2021/04/22 00:55:45;;;;;;;14.52;2.78;;;;;;;5.36;64.80;102242.13;4985191;28;21796;-21
2021/04/22 00:58:11;;;;;;;13.07;2.58;;;;;;;5.30;65.10;102245.53;4980643;28;20105;-21
2021/04/22 01:00:53;;;;;;;13.20;3.10;;;;;;;5.28;65.34;102251.59;4981027;28;20046;-20
2021/04/22 01:03:19;;;;;;;9.70;2.77;;;;;;;5.28;65.46;102248.97;4982604;28;20022;-21
2021/04/22 01:05:46;;;;;;;12.90;2.75;;;;;;;5.29;65.10;102253.41;4977922;28;20039;-21
2021/04/22 01:08:12;;;;;;;10.85;2.72;;;;;;;5.23;65.41;102244.47;4983958;28;20554;-21
2021/04/22 01:10:37;;;;;;;14.38;2.95;;;;;;;5.26;64.90;102241.03;4986458;28;20022;-21
2021/04/22 01:13:02;;;;;;;10.73;2.88;;;;;;;5.21;65.32;102247.97;4982467;28;20026;-20
2021/04/22 01:15:28;;;;;;;14.70;3.03;;;;;;;5.17;65.15;102243.47;4979113;28;20058;-20
2021/04/22 01:17:54;;;;;;;21.38;3.17;;;;;;;5.08;65.10;102247.69;4982862;28;20029;-22
2021/04/22 01:20:21;;;;;;;15.23;3.15;;;;;;;4.98;65.23;102249.22;4986427;28;20030;-22
2021/04/22 01:22:47;;;;;;;14.10;2.42;;;;;;;4.99;65.86;102256.28;4986296;28;20403;-21
2021/04/22 01:25:18;;;;;;;14.15;3.13;;;;;;;4.99;65.62;102256.28;4991857;28;20054;-22
2021/04/22 01:27:44;;;;;;;11.88;2.97;;;;;;;4.90;65.51;102256.09;4988236;28;20060;-21
2021/04/22 01:30:12;;;;;;;18.48;3.40;;;;;;;4.85;66.08;102263.88;4995210;28;20018;-21
2021/04/22 01:32:38;;;;;;;14.13;3.15;;;;;;;4.82;65.71;102263.81;4987914;28;20045;-21
2021/04/22 01:35:14;;;;;;;11.90;2.67;;;;;;;4.93;66.21;102264.06;4986576;28;20023;-21
2021/04/22 01:37:39;;;;;;;13.68;3.25;;;;;;;4.85;66.04;102266.53;4985463;28;20033;-20
2021/04/22 01:40:05;;;;;;;12.38;3.00;;;;;;;4.74;66.08;102268.91;4987404;28;20189;-22
2021/04/22 01:42:30;;;;;;;12.95;3.00;;;;;;;4.72;66.42;102272.34;4982902;28;20026;-21
2021/04/22 01:44:56;;;;;;;12.18;2.88;;;;;;;4.77;66.72;102273.38;4991903;28;20019;-21
2021/04/22 01:47:21;;;;;;;10.43;2.85;;;;;;;4.75;66.54;102273.34;4985559;28;20367;-22
2021/04/22 01:49:46;;;;;;;10.38;3.10;;;;;;;4.65;66.43;102277.50;4987741;28;20040;-22
2021/04/22 01:52:12;;;;;;;12.73;3.15;;;;;;;4.84;66.28;102285.84;4993393;28;20038;-21
2021/04/22 01:54:37;;;;;;;15.82;3.42;;;;;;;4.81;66.36;102283.13;4984627;28;20033;-21
2021/04/22 01:57:03;;;;;;;13.18;3.05;;;;;;;4.73;66.65;102274.16;4985956;28;20026;-21
2021/04/22 01:59:28;;;;;;;13.05;3.03;;;;;;;4.75;66.76;102272.44;4994821;28;20040;-21
2021/04/22 02:01:53;;;;;;;12.70;3.35;;;;;;;4.71;66.50;102279.41;4982083;28;20037;-22
2021/04/22 02:04:19;;;;;;;12.18;3.15;;;;;;;4.65;66.67;102279.25;4986295;28;20103;-22
2021/04/22 02:06:44;;;;;;;13.05;2.83;;;;;;;4.57;66.43;102284.31;4982262;28;20126;-19
2021/04/22 02:09:09;;;;;;;15.02;2.75;;;;;;;4.63;66.80;102281.84;4995679;28;20080;-19
2021/04/22 02:11:35;;;;;;;17.02;3.58;;;;;;;4.60;66.50;102276.50;4988160;28;20672;-20
2021/04/22 02:14:00;;;;;;;17.83;3.00;;;;;;;4.58;66.80;102283.47;4991389;28;20025;-20
2021/04/22 02:16:26;;;;;;;18.33;3.58;;;;;;;4.62;66.74;102285.34;4982080;28;20045;-18
2021/04/22 02:18:51;;;;;;;17.40;3.30;;;;;;;4.53;66.99;102296.53;4966669;28;20149;-18
2021/04/22 02:21:16;;;;;;;18.27;3.28;;;;;;;4.57;66.96;102291.34;4967656;28;20038;-19
2021/04/22 02:23:42;;;;;;;20.85;3.17;;;;;;;4.51;67.00;102287.72;4986617;28;20048;-20
2021/04/22 02:26:07;;;;;;;15.32;3.22;;;;;;;4.33;66.72;102268.81;4987499;28;20030;-21
2021/04/22 02:28:34;;;;;;;18.88;3.42;;;;;;;4.41;67.13;102285.69;4985683;28;20242;-22
2021/04/22 02:30:59;;;;;;;15.23;3.72;;;;;;;4.38;67.02;102288.25;4983574;28;20547;-21
2021/04/22 02:33:24;;;;;;;17.55;4.10;;;;;;;4.49;67.28;102293.78;4992140;28;20041;-22
2021/04/22 02:35:50;;;;;;;14.75;3.35;;;;;;;4.45;67.53;102297.19;4981181;28;20574;-22
2021/04/22 02:38:15;;;;;;;18.48;3.45;;;;;;;4.34;67.43;102303.09;4982881;28;20030;-22
2021/04/22 02:40:42;;;;;;;16.55;3.50;;;;;;;4.25;67.38;102297.59;4995244;28;20021;-21
2021/04/22 02:43:13;;;;;;;18.20;3.95;;;;;;;4.27;67.31;102299.41;4982843;28;20034;-21
2021/04/22 02:45:43;;;;;;;11.32;3.30;;;;;;;4.26;67.28;102294.97;4982470;28;20069;-21
2021/04/22 02:48:08;;;;;;;15.15;3.65;;;;;;;4.24;67.56;102295.81;4990712;28;20049;-21
2021/04/22 02:50:35;;;;;;;14.57;3.20;;;;;;;4.29;67.72;102297.69;4982397;28;20446;-21
2021/04/22 02:53:01;;;;;;;16.27;3.40;;;;;;;4.20;67.65;102304.47;4986974;28;20146;-21
2021/04/22 02:55:26;;;;;;;18.27;4.57;;;;;;;4.26;67.32;102300.25;4984792;28;20041;-22
2021/04/22 02:57:52;;;;;;;16.63;3.83;;;;;;;4.22;67.53;102306.28;4994360;28;20030;-22
2021/04/22 03:00:19;;;;;;;22.20;3.95;;;;;;;4.30;67.81;102304.75;4981729;28;20453;-21
2021/04/22 03:02:45;;;;;;;16.13;3.30;;;;;;;4.34;67.91;102299.56;4988279;28;20118;-22
2021/04/22 03:05:11;;;;;;;16.25;3.42;;;;;;;4.25;67.82;102301.13;4991296;28;20206;-20
2021/04/22 03:07:36;;;;;;;16.30;3.75;;;;;;;4.23;67.93;102302.81;4983726;28;20034;-21
2021/04/22 03:10:03;;;;;;;15.68;3.42;;;;;;;4.14;67.83;102305.19;4984303;28;20075;-22
2021/04/22 03:12:28;;;;;;;15.07;3.38;;;;;;;4.20;67.77;102308.00;4982346;28;20084;-21
2021/04/22 03:14:54;;;;;;;18.92;4.32;;;;;;;4.29;67.71;102305.59;4982863;28;20476;-21
2021/04/22 03:17:19;;;;;;;20.17;3.97;;;;;;;4.37;67.97;102313.69;4980039;28;20060;-19
2021/04/22 03:19:44;;;;;;;16.17;3.45;;;;;;;4.18;67.46;102309.72;4980532;28;20038;-21
2021/04/22 03:22:10;;;;;;;11.63;3.40;;;;;;;4.12;67.98;102309.53;4979703;28;20120;-20
2021/04/22 03:24:35;;;;;;;16.27;4.25;;;;;;;4.07;67.79;102312.06;4978133;28;20054;-21
2021/04/22 03:27:01;;;;;;;18.80;3.70;;;;;;;4.06;67.72;102307.63;4977117;28;20098;-21
2021/04/22 03:29:26;;;;;;;17.77;3.80;;;;;;;4.12;68.13;102306.91;4979172;28;20022;-21
2021/04/22 03:31:51;;;;;;;10.93;2.72;;;;;;;4.07;68.11;102309.44;4977574;28;20030;-21
2021/04/22 03:34:17;;;;;;;15.32;3.72;;;;;;;4.01;68.02;102311.88;4980430;28;20040;-21
2021/04/22 03:36:42;;;;;;;15.73;3.45;;;;;;;3.99;68.07;102317.13;4982046;28;20027;-21
2021/04/22 03:39:08;;;;;;;12.27;3.75;;;;;;;3.90;68.01;102316.84;4982515;28;20049;-20
2021/04/22 03:41:33;;;;;;;13.25;3.80;;;;;;;3.90;68.20;102316.84;4980650;28;20026;-20
2021/04/22 03:43:58;;;;;;;15.77;4.00;;;;;;;3.97;68.44;102320.53;4992804;28;20621;-21
2021/04/22 03:46:24;;;;;;;19.65;4.78;;;;;;;3.85;68.47;102314.06;4981302;28;20034;-21
2021/04/22 03:48:49;;;;;;;12.82;3.58;;;;;;;3.92;68.34;102307.25;4981497;28;20029;-21
2021/04/22 03:51:14;;;;;;;15.32;3.70;;;;;;;3.80;68.67;102311.31;4980422;28;20075;-19
2021/04/22 03:53:40;;;;;;;14.68;3.85;;;;;;;3.84;68.43;102312.31;4980309;28;20038;-19
2021/04/22 03:56:05;;;;;;;20.13;4.32;;;;;;;3.82;68.49;102317.53;4991682;28;20026;-18
2021/04/22 03:58:30;;;;;;;16.23;4.72;;;;;;;3.79;68.67;102324.44;4990780;28;20401;-19
2021/04/22 04:00:56;;;;;;;19.20;4.55;;;;;;;3.79;68.43;102314.81;4988414;28;20147;-20
2021/04/22 04:03:21;;;;;;;18.70;3.80;;;;;;;3.81;68.66;102322.75;4989997;28;20038;-18
2021/04/22 04:05:46;;;;;;;16.42;3.90;;;;;;;3.72;68.78;102318.13;4982876;28;20118;-25
2021/04/22 04:08:12;;;;;;;15.75;3.70;;;;;;;3.73;69.09;102313.72;5013007;23;20133;-25
2021/04/22 04:10:37;;;;;;;13.68;4.03;;;;;;;3.68;68.89;102317.16;5003631;28;20034;-24
2021/04/22 04:13:02;;;;;;;14.05;4.45;;;;;;;3.66;68.89;102323.22;5008775;28;20144;-26
2021/04/22 04:15:28;;;;;;;14.30;3.35;;;;;;;3.72;69.04;102327.75;4992380;28;20570;-26
2021/04/22 04:17:53;;;;;;;22.13;4.55;;;;;;;3.61;69.15;102332.72;4984873;28;20026;-25
2021/04/22 04:20:18;;;;;;;13.48;3.75;;;;;;;3.65;68.93;102335.47;5004040;28;20030;-25
2021/04/22 04:22:44;;;;;;;16.17;4.03;;;;;;;3.68;69.13;102339.94;4986381;28;20034;-24
2021/04/22 04:25:10;;;;;;;19.48;4.85;;;;;;;3.58;69.04;102341.41;5000169;28;20056;-25
2021/04/22 04:27:36;;;;;;;15.35;4.35;;;;;;;3.57;69.16;102337.00;5002574;28;20029;-24
2021/04/22 04:30:03;;;;;;;15.75;4.40;;;;;;;3.62;69.20;102343.28;4996720;28;20033;-24
2021/04/22 04:32:28;;;;;;;19.02;4.95;;;;;;;3.60;69.48;102338.81;4996099;28;20033;-25
2021/04/22 04:34:54;;;;;;;16.10;3.65;;;;;;;3.55;69.11;102346.56;4992408;28;20592;-25
2021/04/22 04:37:19;;;;;;;14.20;3.90;;;;;;;3.60;69.11;102350.22;4999581;28;20030;-25
2021/04/22 04:39:44;;;;;;;18.30;4.78;;;;;;;3.67;69.46;102349.56;5001248;28;20032;-24
2021/04/22 04:42:10;;;;;;;13.73;3.63;;;;;;;3.84;69.05;102346.53;5002667;28;20033;-25
2021/04/22 04:44:35;;;;;;;18.52;3.63;;;;;;;3.87;68.93;102348.38;5008022;28;20037;-28
2021/04/22 04:47:01;;;;;;;17.58;4.43;;;;;;;3.90;68.94;102343.19;5008678;28;20427;-25
2021/04/22 04:49:26;;;;;;;17.38;3.88;;;;;;;3.79;68.91;102353.41;5005273;28;20041;-25
2021/04/22 04:51:51;;;;;;;21.23;4.57;;;;;;;3.78;69.38;102355.13;5012198;28;20025;-24
2021/04/22 04:54:17;;;;;;;15.45;3.78;;;;;;;3.82;69.00;102345.59;5001105;28;20096;-25
2021/04/22 04:56:42;;;;;;;14.65;4.15;;;;;;;3.85;68.79;102352.69;5010367;28;20022;-24
2021/04/22 04:59:08;;;;;;;20.73;3.75;;;;;;;3.79;68.96;102353.41;4998435;28;20116;-26
2021/04/22 05:01:33;;;;;;;15.77;4.40;;;;;;;3.65;68.70;102353.03;4998652;28;20021;-24
2021/04/22 05:03:58;;;;;;;16.90;4.63;;;;;;;3.42;69.18;102351.47;4999046;28;20086;-24
2021/04/22 05:06:24;;;;;;;13.93;3.97;;;;;;;3.47;69.22;102356.88;4985671;28;20410;-25
2021/04/22 05:08:49;;;;;;;12.13;3.72;;;;;;;3.76;69.38;102366.50;4997372;28;20160;-26
2021/04/22 05:11:14;;;;;;;17.27;4.07;;;;;;;3.93;69.24;102365.22;5000639;28;20066;-24
2021/04/22 05:13:40;;;;;;;15.57;4.03;;;;;;;4.00;68.69;102362.78;4998539;28;20106;-26
2021/04/22 05:16:05;;;;;;;13.20;3.63;;;;;;;4.01;68.72;102372.44;4994256;28;20100;-25
2021/04/22 05:18:31;;;;;;;13.90;3.53;;;;;;;4.03;69.15;102371.66;5003535;28;20026;-26
2021/04/22 05:20:56;;;;;;;16.27;3.97;;;;;;;3.99;68.86;102371.50;4997626;28;20128;-25
2021/04/22 05:23:22;;;;;;;21.15;4.70;;;;;;;3.99;68.89;102375.06;5001249;28;20045;-25
2021/04/22 05:25:47;;;;;;;14.63;4.05;;;;;;;4.09;69.05;102376.19;4983509;28;20119;-24
2021/04/22 05:28:13;;;;;;;19.73;4.53;;;;;;;4.21;69.09;102382.66;4996367;28;20069;-25
2021/04/22 05:30:38;;;;;;;18.92;4.43;;;;;;;4.15;68.79;102383.38;5005395;28;20104;-24
2021/04/22 05:33:04;;;;;;;16.55;4.57;;;;;;;4.12;68.87;102388.56;5005424;28;20101;-24
2021/04/22 05:35:29;;;;;;;12.25;4.05;;;;;;;4.07;69.22;102391.06;5004367;28;20515;-24
2021/04/22 05:37:54;;;;;;;13.25;3.80;;;;;;;4.16;69.14;102391.34;4999518;28;20044;-26
2021/04/22 05:40:20;;;;;;;13.00;4.07;;;;;;;4.18;69.49;102391.38;4995884;28;20549;-26
2021/04/22 05:42:45;;;;;;;17.55;4.78;;;;;;;4.17;69.38;102394.84;5002349;28;20029;-24
2021/04/22 05:45:11;;;;;;;14.75;4.32;;;;;;;4.29;69.22;102389.91;5005240;28;20416;-28
2021/04/22 05:47:37;;;;;;;18.45;4.47;;;;;;;4.16;68.93;102399.25;4998901;28;20120;-26
2021/04/22 05:50:03;;;;;;;18.48;4.47;;;;;;;4.22;69.48;102395.00;5003257;28;20044;-25
2021/04/22 05:52:28;;;;;;;13.95;3.42;;;;;;;4.32;69.88;102394.38;4998311;28;20551;-27
2021/04/22 05:54:54;;;;;;;16.02;3.90;;;;;;;4.62;69.00;102403.06;5001753;28;20094;-25
2021/04/22 05:57:19;;;;;;;18.98;4.93;;;;;;;4.79;69.01;102411.44;4994979;28;20026;-26
2021/04/22 05:59:44;;;;;;;16.92;4.75;;;;;;;4.83;68.72;102402.72;4990926;28;20044;-25
2021/04/22 06:02:10;;;;;;;15.23;4.82;;;;;;;4.67;68.56;102401.44;5006333;28;20075;-25
2021/04/22 06:04:35;;;;;;;15.30;4.50;;;;;;;4.61;68.43;102406.53;5005894;28;20048;-25
2021/04/22 06:07:01;;;;;;;16.02;5.43;;;;;;;4.71;68.95;102412.97;4999343;28;20460;-24
2021/04/22 06:09:26;;;;;;;19.67;5.20;;;;;;;4.90;68.45;102409.94;4978268;28;20123;-22
2021/04/22 06:11:52;;;;;;;18.98;5.38;;;;;;;4.97;67.81;102402.19;4999642;28;20036;-23
2021/04/22 06:14:17;;;;;;;24.90;5.78;;;;;;;4.95;67.50;102403.88;5008083;28;20041;-23
2021/04/22 06:16:42;;;;;;;18.63;5.50;;;;;;;5.10;67.52;102412.19;4998922;28;20041;-23
2021/04/22 06:19:08;;;;;;;23.17;8.70;;;;;;;5.08;68.02;102421.81;5001525;28;20092;-22
2021/04/22 06:21:33;;;;;;;20.15;7.50;;;;;;;5.10;67.62;102422.75;4995948;28;20121;-25
2021/04/22 06:23:58;;;;;;;25.75;13.30;;;;;;;5.19;67.17;102434.38;4997905;28;20395;-24
2021/04/22 06:26:24;;;;;;;22.70;7.53;;;;;;;5.28;67.30;102436.34;5003337;28;20180;-25
2021/04/22 06:28:52;;;;;;;19.70;5.07;;;;;;;5.31;66.88;102431.13;4999880;28;20037;-25
2021/04/22 06:31:18;;;;;;;20.00;7.82;;;;;;;5.44;66.74;102433.19;4994152;28;20019;-25
2021/04/22 06:33:44;;;;;;;18.70;7.78;;;;;;;5.45;66.23;102437.63;4995857;28;20030;-26
2021/04/22 06:36:09;;;;;;;23.00;5.93;;;;;;;5.54;66.32;102430.78;5003418;28;20052;-27
2021/04/22 06:38:34;;;;;;;29.80;12.35;;;;;;;5.54;66.22;102436.97;4999238;28;20018;-24
2021/04/22 06:41:00;;;;;;;18.27;6.07;;;;;;;5.68;65.91;102441.63;4999246;28;20026;-26
2021/04/22 06:43:25;;;;;;;30.92;24.10;;;;;;;5.69;65.92;102440.81;4996728;28;20253;-25
2021/04/22 06:45:51;;;;;;;19.20;5.47;;;;;;;5.72;65.50;102448.78;4999367;28;20025;-26
2021/04/22 06:48:17;;;;;;;21.33;5.80;;;;;;;5.89;65.46;102443.88;5002256;28;20026;-25
2021/04/22 06:50:43;;;;;;;21.00;6.70;;;;;;;6.03;65.36;102444.16;4994880;28;20104;-27
2021/04/22 06:53:08;;;;;;;19.30;5.13;;;;;;;6.09;65.30;102440.78;5001750;28;20458;-25
2021/04/22 06:55:34;;;;;;;21.58;7.88;;;;;;;6.19;64.80;102437.47;4999839;28;20124;-24
2021/04/22 06:57:59;;;;;;;25.15;12.73;;;;;;;6.18;63.91;102440.09;4999033;28;20082;-25
2021/04/22 07:00:25;;;;;;;17.95;8.23;;;;;;;6.28;63.71;102444.72;4999576;28;20049;-25
2021/04/22 07:02:51;;;;;;;18.50;6.82;;;;;;;6.24;63.25;102440.22;4995415;28;20033;-24
2021/04/22 07:05:16;;;;;;;20.17;12.02;;;;;;;6.49;63.60;102443.34;4998090;28;20022;-24
2021/04/22 07:07:42;;;;;;;10.60;4.07;;;;;;;6.78;62.98;102450.91;4999506;28;20026;-24
2021/04/22 07:10:08;;;;;;;14.13;4.00;;;;;;;6.90;62.04;102450.25;4998201;28;20284;-26
2021/04/22 07:12:33;;;;;;;21.58;12.65;;;;;;;7.44;61.75;102456.41;5000581;28;20038;-25
2021/04/22 07:14:59;;;;;;;15.25;4.18;;;;;;;7.82;61.81;102457.81;5004364;28;20041;-25
2021/04/22 07:17:24;;;;;;;14.02;4.47;;;;;;;8.55;59.37;102461.34;5000257;28;20250;-24
2021/04/22 07:19:50;;;;;;;10.50;3.00;;;;;;;8.76;56.44;102470.44;5003606;28;20113;-24
2021/04/22 07:22:15;;;;;;;14.23;3.72;;;;;;;8.43;55.17;102464.75;5000907;28;20028;-25
2021/04/22 07:24:41;;;;;;;11.18;2.60;;;;;;;8.31;54.35;102462.84;5007514;28;20176;-26
2021/04/22 07:27:06;;;;;;;11.45;2.85;;;;;;;7.58;55.26;102469.84;5002487;28;20037;-26
2021/04/22 07:29:32;;;;;;;11.27;3.30;;;;;;;7.32;55.69;102478.25;5005782;28;20038;-25
2021/04/22 07:31:57;;;;;;;15.05;3.67;;;;;;;7.49;56.11;102482.09;5002526;28;20032;-27
2021/04/22 07:34:23;;;;;;;16.90;4.15;;;;;;;7.62;56.19;102467.28;5003483;28;20506;-24
2021/04/22 07:36:48;;;;;;;11.15;3.00;;;;;;;7.57;56.06;102473.38;5002289;28;20028;-26
2021/04/22 07:39:13;;;;;;;14.75;4.10;;;;;;;7.64;56.22;102468.19;5001886;28;20061;-26
2021/04/22 07:41:39;;;;;;;15.60;3.40;;;;;;;7.54;56.05;102482.16;5004697;28;20109;-24
2021/04/22 07:44:04;;;;;;;14.27;3.13;;;;;;;7.50;56.18;102478.56;5006332;28;20041;-24
2021/04/22 07:46:29;;;;;;;18.73;3.42;;;;;;;7.50;56.36;102486.50;5002712;28;20026;-25
2021/04/22 07:48:55;;;;;;;14.43;2.78;;;;;;;7.56;56.30;102484.81;5003518;28;20066;-25
2021/04/22 07:51:20;;;;;;;11.05;3.95;;;;;;;7.57;56.02;102483.97;5000534;28;20103;-25
2021/04/22 07:53:45;;;;;;;12.65;3.00;;;;;;;7.58;55.38;102483.97;5004638;28;20033;-28
2021/04/22 07:56:11;;;;;;;15.30;3.35;;;;;;;7.70;55.96;102477.97;5001154;28;20576;-25
2021/04/22 07:58:36;;;;;;;14.75;2.88;;;;;;;8.00;56.20;102484.56;5001692;28;20030;-25
2021/04/22 08:01:02;;;;;;;15.00;2.97;;;;;;;8.36;55.26;102486.78;5001477;28;20022;-26
2021/04/22 08:03:27;;;;;;;14.13;2.95;;;;;;;8.39;55.53;102491.22;5002299;28;20204;-25
2021/04/22 08:05:56;;;;;;;9.88;2.97;;;;;;;8.34;55.38;102492.06;5001790;28;20464;-24
2021/04/22 08:08:22;;;;;;;11.05;2.42;;;;;;;9.06;55.16;102490.19;5005033;28;20084;-24
2021/04/22 08:10:47;;;;;;;13.40;2.47;;;;;;;9.29;54.59;102485.94;5003552;28;20085;-24
2021/04/22 08:13:14;;;;;;;11.80;2.83;;;;;;;8.45;53.82;102500.16;5002262;28;20105;-24
2021/04/22 08:15:39;;;;;;;10.10;2.30;;;;;;;8.26;54.42;102492.81;4998733;28;20117;-24
2021/04/22 08:18:05;;;;;;;4.22;1.40;;;;;;;8.44;55.07;102493.06;5001679;28;21141;-25
2021/04/22 08:20:31;;;;;;;14.90;3.35;;;;;;;9.01;54.20;102486.59;5007166;28;20112;-25
2021/04/22 08:22:57;;;;;;;14.93;3.30;;;;;;;8.21;53.77;102496.34;4999956;28;20034;-28
2021/04/22 08:25:28;;;;;;;8.75;2.30;;;;;;;8.28;53.95;102492.00;5002149;28;20082;-24
2021/04/22 08:27:54;;;;;;;10.82;2.90;;;;;;;8.03;54.45;102504.94;5000629;28;20022;-25
2021/04/22 08:30:21;;;;;;;6.10;2.25;;;;;;;8.73;54.96;102496.06;4994312;28;20048;-25
2021/04/22 08:32:46;;;;;;;14.25;4.97;;;;;;;8.56;54.27;102496.75;5010517;28;20121;-27
2021/04/22 08:35:12;;;;;;;10.02;2.58;;;;;;;8.49;54.72;102498.44;4997624;28;20033;-25
2021/04/22 08:37:38;;;;;;;15.75;4.05;;;;;;;9.62;53.77;102497.69;5002461;28;20030;-25
2021/04/22 08:40:05;;;;;;;10.95;3.20;;;;;;;8.95;53.66;102497.16;5003466;28;20081;-25
2021/04/22 08:42:32;;;;;;;12.73;4.15;;;;;;;9.17;53.88;102498.25;5000212;28;20053;-24
2021/04/22 08:44:59;;;;;;;13.57;3.08;;;;;;;9.85;53.50;102496.97;5001782;28;20030;-26
2021/04/22 08:47:24;;;;;;;12.75;3.08;;;;;;;9.28;53.04;102498.34;4996340;28;20457;-24
2021/04/22 08:49:49;;;;;;;14.90;3.80;;;;;;;9.23;52.58;102502.75;4983480;28;20045;-25
2021/04/22 08:52:15;;;;;;;10.52;2.90;;;;;;;9.27;53.07;102503.66;5002289;28;20057;-26
2021/04/22 08:54:40;;;;;;;18.83;7.78;;;;;;;9.35;53.45;102499.28;4999953;28;20040;-27
2021/04/22 08:57:06;;;;;;;14.00;6.05;;;;;;;9.47;52.70;102503.78;4998202;28;20030;-24
2021/04/22 08:59:31;;;;;;;10.98;3.70;;;;;;;9.37;52.09;102499.28;5002339;28;20165;-26
2021/04/22 09:01:56;;;;;;;13.43;4.13;;;;;;;8.86;52.88;102507.69;5011727;28;20024;-24
2021/04/22 09:04:22;;;;;;;20.92;6.90;;;;;;;9.46;52.57;102503.78;5000316;28;20101;-25
2021/04/22 09:06:47;;;;;;;16.48;3.95;;;;;;;9.81;52.21;102500.47;4998842;28;20026;-29
2021/04/22 09:09:13;;;;;;;17.98;4.47;;;;;;;8.84;52.31;102502.38;4997927;28;20090;-25
2021/04/22 09:11:45;;;;;;;17.42;5.90;;;;;;;8.67;53.41;102503.09;5001911;28;20018;-25
2021/04/22 09:14:12;;;;;;;12.68;3.83;;;;;;;8.39;53.21;102501.81;4997754;28;20040;-24
2021/04/22 09:16:37;;;;;;;12.85;4.07;;;;;;;8.47;53.71;102500.16;4997281;28;20030;-27
2021/04/22 09:19:10;;;;;;;11.00;4.40;;;;;;;8.53;53.87;102497.56;4999644;28;20044;-25
2021/04/22 09:21:38;;;;;;;17.48;4.28;;;;;;;8.33;54.06;102502.66;4984902;28;20037;-25
2021/04/22 09:24:11;;;;;;;12.98;5.80;;;;;;;8.43;54.27;102499.25;4998862;28;20033;-25
2021/04/22 09:26:39;;;;;;;13.80;4.03;;;;;;;8.36;54.20;102500.94;4999581;28;20026;-24
2021/04/22 09:29:04;;;;;;;11.35;3.63;;;;;;;8.35;54.18;102496.50;4998100;28;20207;-25
2021/04/22 09:31:30;;;;;;;12.90;3.97;;;;;;;8.42;54.26;102494.78;5001109;28;20195;-26
2021/04/22 09:34:04;;;;;;;18.02;3.90;;;;;;;8.39;54.18;102496.53;5003896;28;20026;-25
2021/04/22 09:36:49;;;;;;;13.40;4.43;;;;;;;8.52;54.26;102490.50;5001286;28;20030;-24
2021/04/22 09:39:21;;;;;;;12.55;3.63;;;;;;;8.77;54.07;102488.13;4999072;28;20075;-27
2021/04/22 09:41:47;;;;;;;17.30;4.07;;;;;;;8.84;54.07;102489.97;4999528;28;20032;-25
2021/04/22 09:44:13;;;;;;;10.38;3.40;;;;;;;8.76;54.02;102485.47;5001220;28;20373;-26
2021/04/22 09:46:42;;;;;;;15.20;3.75;;;;;;;8.86;53.48;102484.72;5000811;28;20156;-25
2021/04/22 09:49:09;;;;;;;12.73;3.38;;;;;;;9.07;53.62;102491.97;4999068;28;20054;-25
2021/04/22 09:51:37;;;;;;;8.20;2.70;;;;;;;9.83;53.42;102488.09;4999414;28;20042;-26
2021/04/22 09:54:06;;;;;;;15.63;4.00;;;;;;;10.06;52.28;102489.97;4995612;28;20033;-24
2021/04/22 09:56:54;;;;;;;15.00;3.45;;;;;;;9.12;51.98;102491.13;4999885;28;20065;-24
2021/04/22 09:59:24;;;;;;;8.52;3.30;;;;;;;9.17;52.62;102484.97;5003274;28;20659;-25
2021/04/22 10:02:02;;;;;;;13.93;3.83;;;;;;;9.17;52.56;102486.75;4999870;28;20014;-26
2021/04/22 10:04:38;;;;;;;13.65;4.13;;;;;;;9.21;52.77;102488.56;4999550;28;20061;-26
2021/04/22 10:07:04;;;;;;;11.70;3.40;;;;;;;9.40;52.30;102492.22;4999774;28;20052;-24
2021/04/22 10:09:33;;;;;;;14.10;4.50;;;;;;;9.16;52.04;102499.13;4999349;28;20113;-29
2021/04/22 10:11:58;;;;;;;12.30;3.90;;;;;;;9.22;52.43;102492.06;4995381;28;20120;-25
2021/04/22 10:14:34;;;;;;;10.27;3.20;;;;;;;9.60;52.05;102486.16;4981647;28;20026;-25
2021/04/22 10:16:59;;;;;;;9.68;2.88;;;;;;;10.00;51.39;102474.91;4994718;28;20102;-26
2021/04/22 10:19:25;;;;;;;14.05;4.25;;;;;;;10.33;51.15;102484.78;4996819;28;20465;-25
2021/04/22 10:21:50;;;;;;;9.45;3.72;;;;;;;10.25;50.11;102487.38;5001242;28;20242;-28
2021/04/22 10:24:15;;;;;;;13.18;3.33;;;;;;;10.30;50.91;102488.28;5001132;28;20033;-25
2021/04/22 10:26:44;;;;;;;8.18;2.47;;;;;;;11.84;51.54;102483.97;4996968;28;20356;-27
2021/04/22 10:29:09;;;;;;;6.15;1.80;;;;;;;11.08;50.51;102488.50;5004997;28;20033;-26
2021/04/22 10:31:36;;;;;;;13.75;3.75;;;;;;;12.13;49.37;102482.13;5004719;28;20041;-25
2021/04/22 10:34:01;;;;;;;13.52;3.90;;;;;;;11.12;48.61;102492.06;4996396;28;20029;-27
2021/04/22 10:36:27;;;;;;;13.73;5.53;;;;;;;9.93;49.43;102496.13;4998963;28;20029;-24
2021/04/22 10:38:52;;;;;;;13.50;5.25;;;;;;;9.87;50.77;102489.91;5000602;28;20044;-29
2021/04/22 10:41:19;;;;;;;14.38;5.35;;;;;;;9.77;50.52;102482.72;5002493;28;20106;-25
2021/04/22 10:43:44;;;;;;;13.95;4.70;;;;;;;9.50;50.88;102484.34;5008643;28;20025;-26
2021/04/22 10:46:09;;;;;;;15.75;5.65;;;;;;;9.69;51.22;102485.34;4996511;28;20636;-26
2021/04/22 10:48:35;;;;;;;11.27;4.10;;;;;;;9.96;51.35;102486.38;4998358;28;20052;-24
2021/04/22 10:51:00;;;;;;;13.68;4.00;;;;;;;10.00;51.22;102484.63;4997100;28;20030;-26
2021/04/22 10:53:25;;;;;;;16.00;6.53;;;;;;;9.96;51.32;102480.19;4996021;28;20034;-26
2021/04/22 10:55:53;;;;;;;14.20;4.85;;;;;;;9.87;51.17;102478.38;4997701;28;20614;-26
2021/04/22 10:58:19;;;;;;;18.48;5.03;;;;;;;9.96;51.89;102488.16;4995032;28;20101;-25
2021/04/22 11:01:04;;;;;;;16.80;4.50;;;;;;;10.58;50.35;102471.56;4999941;28;20017;-25
2021/04/22 11:03:38;;;;;;;13.75;4.10;;;;;;;10.18;50.35;102474.94;4999057;28;20030;-26
2021/04/22 11:06:05;;;;;;;14.60;3.78;;;;;;;10.23;50.68;102473.19;4997697;28;20392;-25
2021/04/22 11:08:38;;;;;;;13.98;4.97;;;;;;;10.12;50.69;102475.81;5000704;28;20437;-28
2021/04/22 11:11:46;;;;;;;14.90;4.60;;;;;;;9.92;50.45;102476.59;4997192;28;20018;-27
2021/04/22 11:14:15;;;;;;;13.05;3.85;;;;;;;10.30;50.87;102471.47;4989924;28;20057;-25
2021/04/22 11:16:51;;;;;;;13.77;4.55;;;;;;;10.19;50.16;102476.75;5000500;28;20033;-24
2021/04/22 11:19:22;;;;;;;13.73;3.88;;;;;;;10.05;49.57;102468.69;5003014;28;20098;-26
2021/04/22 11:21:53;;;;;;;13.40;4.45;;;;;;;10.21;50.73;102472.31;4999750;28;20018;-26